Aérodrome :
LOGIN :

S'inscrire | Disclaimer

   EN    FR    IT 

 










Légende :    VFR   VFR Marginal   IFR   IFR Intensif   IFR Très Intensif
Visi : 
Plafond : 
>= 8 km
>= 3000ft
5 à 8 km
1000 à 3000 ft
1500m à 5 km
500 à 1000 ft
800 à 1500m
200 à 500 ft
< 800m
< 200 ft
Symboles :   Orages  Brouillard  Fortes neiges  Fortes précipitations  Vent > 20 kt
SIGMETs :   Divers  Orages  Givrage  Turbulence  Onde Orograph.  Cendres Volcan.






- Altitude de l'aérodrome : 285 ft
- Code IATA : GOZ


LBGO - Gorna Oryahovitsa

DERNIER METAR :
  • 131230Z AUTO 16012G24KT 120V210 9999 FEW056 23/12 Q1010 TEMPO 17016G26KT

METARs EXPIRÉS :
  • 131200Z AUTO 15010KT 110V180 9999 FEW055 23/11 Q1009 NOSIG
  • 131130Z AUTO 12009KT 9999 FEW059 22/10 Q1009 NOSIG
  • 131100Z AUTO 12007KT 100V160 9999 NCD 22/11 Q1009 NOSIG
  • 131030Z AUTO 14007KT 070V180 9999 NCD 22/11 Q1010 NOSIG
  • 131000Z AUTO 16012KT 130V190 9999 NCD 22/10 Q1010 TEMPO 16016G26KT

TAF TAF LBGO
Valide du 13 à 12h jusqu'au 14 à 12h UTC


131100Z 1312/1412 11012KT 9999 SCT050
TEMPO 1312/1320 17016G26KT
TEMPO 1406/1412 5000 SHRA FEW030CB BKN050



MET'MAP, la Météo Aéronautique d'un coup d'oeil ! - Copyright ORBIFLY Décembre 2007 - Disclaimer

ORBIFLY MET'MAP TEAM :

Programmation & Développement : Alexandra Zaïnal
Conception & Développement : Baudouin d'Aumeries
Co-Programmation & Développement : Marc-Olivier Méhu
Soutien technique & logistique : Manuel Goepfert

Contact : metmap@orbifly.com




SOURCES & CREDITS :

   NOAA